Lincoln, New York
Current Conditions -  °F | °C
As of 1:54 AM on Saturday 29 Nov 2014 (Local Time) from KSYR Reporting Station
Overcast Overcast  
Wind Chill: 15°   Ceiling: 11000
Heat Index: 25°   Visibility: 10mi
Dew Point: 16°   Wind: 10mph
Humidity: 69%   Direction: 220°SW
Pressure: 30.22"   Gusts: NA
Location:  43.0414°N, 75.7453°W
Report Text: KSYR 290654Z 22009KT 10SM OVC110 M04/M09 A3022 RMK AO2 SLP237 T10391089
Loading
Personal Weather Stations






























Interactive Weather Map New forecast layout! Learn more

10-Day Weather Forecast

Advertisements
Track Severe Weather on mobile